createdAt,value
2022-10-30T00:03:35.773Z,47.08
2022-10-30T00:06:09.939Z,46.97
2022-10-30T00:08:37.689Z,41.45
2022-10-30T00:11:14.950Z,44.17
2022-10-30T00:13:48.426Z,35.28
2022-10-30T00:16:19.319Z,41.95
2022-10-30T00:18:46.937Z,39.97
2022-10-30T00:21:20.482Z,38.75
2022-10-30T00:24:04.216Z,38.45
2022-10-30T00:29:23.733Z,44.25
2022-10-30T00:31:51.695Z,41.40
2022-10-30T00:34:19.748Z,38.42
2022-10-30T00:36:47.288Z,39.78
2022-10-30T00:39:14.632Z,39.45
2022-10-30T00:41:42.411Z,38.42
2022-10-30T00:44:47.374Z,35.67
2022-10-30T00:47:26.090Z,42.42
2022-10-30T00:50:00.851Z,39.70
2022-10-30T00:55:11.330Z,37.90
2022-10-30T00:57:39.543Z,35.47
2022-10-30T01:00:11.667Z,33.20
2022-10-30T01:02:48.643Z,42.90
2022-10-30T01:05:26.733Z,34.58
2022-10-30T01:07:56.822Z,50.22
2022-10-30T01:10:29.548Z,45.78
2022-10-30T01:13:05.164Z,41.30
2022-10-30T01:15:46.320Z,39.03
2022-10-30T01:18:39.357Z,47.95
2022-10-30T01:21:16.372Z,36.58
2022-10-30T01:24:10.947Z,47.85
2022-10-30T01:26:51.104Z,44.03
2022-10-30T01:29:21.244Z,46.30
2022-10-30T01:32:21.266Z,51.20
2022-10-30T01:34:57.650Z,47.97
2022-10-30T01:37:47.639Z,42.45
2022-10-30T01:40:20.413Z,36.65
2022-10-30T01:42:56.565Z,50.00
2022-10-30T01:45:52.664Z,50.78
2022-10-30T01:48:44.801Z,47.83
2022-10-30T01:51:53.563Z,55.67
2022-10-30T01:54:45.842Z,48.33
2022-10-30T01:57:39.858Z,50.00
2022-10-30T02:00:16.319Z,61.97
2022-10-30T02:02:56.631Z,51.67
2022-10-30T02:05:46.100Z,60.03
2022-10-30T02:08:16.604Z,50.28
2022-10-30T02:10:47.152Z,48.10
2022-10-30T02:13:18.638Z,48.92
2022-10-30T02:15:50.824Z,49.88
2022-10-30T02:18:31.371Z,60.42
2022-10-30T02:21:03.373Z,58.53
2022-10-30T02:23:35.763Z,48.03
2022-10-30T02:26:03.330Z,49.28
2022-10-30T02:28:31.356Z,51.40
2022-10-30T02:30:58.789Z,47.50
2022-10-30T02:33:25.993Z,55.42
2022-10-30T02:35:54.833Z,60.40
2022-10-30T02:38:22.147Z,51.95
2022-10-30T02:40:54.193Z,51.97
2022-10-30T02:43:23.894Z,50.50
2022-10-30T02:45:55.712Z,66.65
2022-10-30T02:48:23.236Z,50.55
2022-10-30T02:50:52.676Z,54.75
2022-10-30T02:53:27.953Z,50.13
2022-10-30T02:56:03.659Z,49.50
2022-10-30T02:58:35.826Z,46.55
2022-10-30T03:01:15.974Z,47.45
2022-10-30T03:03:47.128Z,49.38
2022-10-30T03:06:17.276Z,42.92
2022-10-30T03:08:44.823Z,50.30
2022-10-30T03:11:20.106Z,46.60
2022-10-30T03:13:48.691Z,43.83
2022-10-30T03:16:29.769Z,40.90
2022-10-30T03:19:15.157Z,56.30
2022-10-30T03:21:42.341Z,59.15
2022-10-30T03:24:11.478Z,39.65
2022-10-30T03:26:40.901Z,38.80
2022-10-30T03:29:10.648Z,47.50
2022-10-30T03:31:37.902Z,48.22
2022-10-30T03:34:19.184Z,44.47
2022-10-30T03:36:49.530Z,48.20
2022-10-30T03:39:19.692Z,53.78
2022-10-30T03:41:49.977Z,39.00
2022-10-30T03:44:18.355Z,42.58
2022-10-30T03:46:47.887Z,44.70
2022-10-30T03:49:28.750Z,43.00
2022-10-30T03:52:05.085Z,42.63
2022-10-30T03:54:34.300Z,46.20
2022-10-30T03:57:06.842Z,37.13
2022-10-30T04:00:19.736Z,39.25
2022-10-30T04:02:59.265Z,50.58
2022-10-30T04:05:30.744Z,40.55
2022-10-30T04:08:01.877Z,41.42
2022-10-30T04:10:32.495Z,45.40
2022-10-30T04:13:06.725Z,56.38
2022-10-30T04:15:37.956Z,39.78
2022-10-30T04:18:06.436Z,46.33
2022-10-30T04:20:35.456Z,41.65
2022-10-30T04:23:05.876Z,38.38
2022-10-30T04:25:35.467Z,37.03
2022-10-30T04:28:10.742Z,47.28
2022-10-30T04:30:38.940Z,41.88
2022-10-30T04:33:09.165Z,43.65
2022-10-30T04:35:38.225Z,43.25
2022-10-30T04:40:44.997Z,38.53
2022-10-30T04:43:14.747Z,33.40
2022-10-30T04:45:43.740Z,28.92
2022-10-30T04:48:17.769Z,28.90
2022-10-30T04:50:47.075Z,33.72
2022-10-30T04:53:22.563Z,27.92
2022-10-30T04:58:25.224Z,23.52
2022-10-30T05:01:05.693Z,24.95
2022-10-30T05:03:39.297Z,37.20
2022-10-30T05:06:33.477Z,29.33
2022-10-30T05:09:03.894Z,29.60
2022-10-30T05:11:38.072Z,30.67
2022-10-30T05:14:05.465Z,34.55
2022-10-30T05:16:33.082Z,28.40
2022-10-30T05:19:08.386Z,36.22
2022-10-30T05:21:35.619Z,28.60
2022-10-30T05:24:07.975Z,24.92
2022-10-30T05:26:42.263Z,35.05
2022-10-30T05:29:09.517Z,27.33
2022-10-30T05:31:37.019Z,32.47
2022-10-30T05:34:35.842Z,29.52
2022-10-30T05:37:06.455Z,27.52
2022-10-30T05:39:34.120Z,31.02
2022-10-30T05:42:11.262Z,27.75
2022-10-30T05:45:00.429Z,30.92
2022-10-30T05:47:36.976Z,30.33
2022-10-30T05:50:11.901Z,34.10
2022-10-30T05:52:49.586Z,35.85
2022-10-30T05:55:19.735Z,26.75
2022-10-30T05:58:15.609Z,23.95
2022-10-30T06:00:45.794Z,33.80
2022-10-30T06:03:17.859Z,25.30
2022-10-30T06:05:48.238Z,33.85
2022-10-30T06:08:25.893Z,28.13
2022-10-30T06:11:11.466Z,27.50
2022-10-30T06:13:51.193Z,29.95
2022-10-30T06:16:40.363Z,28.08
2022-10-30T06:19:37.628Z,26.20
2022-10-30T06:22:28.229Z,37.55
2022-10-30T06:25:10.953Z,28.05
2022-10-30T06:28:16.782Z,25.80
2022-10-30T06:30:48.144Z,27.23
2022-10-30T06:33:32.394Z,26.10
2022-10-30T06:36:01.680Z,22.40
2022-10-30T06:38:47.318Z,31.63
2022-10-30T06:41:38.703Z,32.40
2022-10-30T06:44:49.233Z,30.92
2022-10-30T06:47:23.374Z,22.05
2022-10-30T06:49:57.019Z,24.83
2022-10-30T06:52:42.459Z,29.55
2022-10-30T06:55:25.172Z,29.20
2022-10-30T06:58:28.740Z,22.27
2022-10-30T07:01:20.083Z,36.42
2022-10-30T07:04:09.615Z,25.77
2022-10-30T07:06:45.905Z,27.73
2022-10-30T07:09:17.484Z,43.13
2022-10-30T07:11:56.940Z,29.40
2022-10-30T07:14:48.043Z,27.23
2022-10-30T07:17:34.968Z,26.40
2022-10-30T07:23:08.160Z,27.67
2022-10-30T07:25:42.127Z,32.65
2022-10-30T07:28:37.263Z,24.48
2022-10-30T07:31:41.967Z,28.27
2022-10-30T07:34:50.773Z,28.77
2022-10-30T07:38:10.829Z,25.40
2022-10-30T07:40:59.031Z,22.75
2022-10-30T07:43:49.117Z,26.63
2022-10-30T07:46:44.378Z,19.02
2022-10-30T07:49:40.998Z,31.88
2022-10-30T07:52:19.269Z,21.00
2022-10-30T07:55:20.733Z,39.95
2022-10-30T07:57:51.257Z,23.50
2022-10-30T08:00:30.854Z,26.00
2022-10-30T08:03:37.512Z,26.00
2022-10-30T08:06:23.258Z,26.45
2022-10-30T08:08:57.166Z,28.55
2022-10-30T08:14:10.016Z,30.48
2022-10-30T08:16:43.832Z,21.23
2022-10-30T08:21:53.789Z,21.50
2022-10-30T08:24:31.609Z,26.52
2022-10-30T08:27:05.538Z,26.17
2022-10-30T08:29:42.736Z,23.02
2022-10-30T08:32:17.462Z,33.40
2022-10-30T08:35:12.626Z,25.58
2022-10-30T08:37:48.435Z,23.42
2022-10-30T08:40:22.234Z,25.88
2022-10-30T08:43:08.798Z,27.83
2022-10-30T08:45:52.952Z,36.53
2022-10-30T08:48:28.044Z,31.17
2022-10-30T08:51:04.822Z,30.58
2022-10-30T08:53:41.479Z,32.53
2022-10-30T08:56:20.846Z,24.90
2022-10-30T08:59:13.748Z,34.53
2022-10-30T09:01:54.385Z,25.92
2022-10-30T09:04:29.380Z,22.48
2022-10-30T09:07:15.725Z,28.23
2022-10-30T09:10:10.995Z,31.77
2022-10-30T09:12:39.287Z,30.42
2022-10-30T09:15:15.343Z,25.83
2022-10-30T09:18:02.448Z,23.80
2022-10-30T09:20:39.310Z,26.23
2022-10-30T09:23:12.724Z,20.95
2022-10-30T09:25:47.563Z,24.30
2022-10-30T09:28:39.791Z,22.40
2022-10-30T09:31:48.237Z,24.02
2022-10-30T09:34:31.172Z,29.98
2022-10-30T09:37:16.858Z,23.23
2022-10-30T09:40:01.159Z,25.00
2022-10-30T09:43:01.679Z,23.88
2022-10-30T09:46:01.196Z,19.75
2022-10-30T09:48:53.145Z,28.42
2022-10-30T09:51:32.116Z,27.02
2022-10-30T09:54:20.634Z,36.13
2022-10-30T09:57:14.749Z,23.35
2022-10-30T10:00:10.607Z,26.92
2022-10-30T10:03:26.226Z,27.67
2022-10-30T10:06:18.874Z,26.88
2022-10-30T10:09:18.679Z,30.45
2022-10-30T10:11:56.050Z,34.13
2022-10-30T10:14:31.450Z,23.00
2022-10-30T10:17:02.087Z,24.33
2022-10-30T10:19:36.163Z,23.35
2022-10-30T10:22:14.897Z,28.38
2022-10-30T10:24:47.735Z,29.95
2022-10-30T10:28:01.462Z,26.20
2022-10-30T10:30:48.311Z,32.42
2022-10-30T10:33:35.445Z,22.88
2022-10-30T10:36:25.782Z,38.00
2022-10-30T10:39:17.742Z,34.83
2022-10-30T10:42:14.410Z,22.60
2022-10-30T10:44:54.334Z,23.20
2022-10-30T10:48:04.390Z,21.95
2022-10-30T10:50:42.252Z,20.65
2022-10-30T10:53:36.545Z,26.75
2022-10-30T10:56:03.721Z,24.35
2022-10-30T10:58:57.243Z,26.77
2022-10-30T11:01:40.330Z,18.63
2022-10-30T11:04:13.329Z,23.95
2022-10-30T11:06:45.240Z,18.40
2022-10-30T11:09:20.256Z,25.02
2022-10-30T11:11:52.854Z,26.40
2022-10-30T11:14:39.151Z,23.17
2022-10-30T11:17:26.049Z,30.25
2022-10-30T11:20:03.354Z,22.70
2022-10-30T11:22:40.435Z,19.60
2022-10-30T11:25:28.641Z,22.05
2022-10-30T11:28:04.902Z,18.63
2022-10-30T11:30:35.307Z,18.15
2022-10-30T11:33:31.006Z,22.15
2022-10-30T11:36:15.624Z,23.88
2022-10-30T11:38:46.061Z,30.05
2022-10-30T11:41:18.308Z,21.98
2022-10-30T11:44:01.298Z,18.73
2022-10-30T11:46:42.830Z,27.63
2022-10-30T11:52:10.970Z,18.45
2022-10-30T11:55:03.397Z,20.58
2022-10-30T11:57:36.917Z,24.38
2022-10-30T12:00:23.037Z,23.45
2022-10-30T12:04:01.007Z,20.05
2022-10-30T12:06:59.365Z,24.85
2022-10-30T12:09:59.520Z,22.30
2022-10-30T12:13:07.821Z,21.50
2022-10-30T12:15:55.455Z,16.77
2022-10-30T12:21:55.160Z,20.92
2022-10-30T12:24:42.511Z,23.65
2022-10-30T12:27:23.547Z,25.48
2022-10-30T12:30:22.714Z,24.65
2022-10-30T12:33:18.740Z,26.27
2022-10-30T12:36:02.274Z,22.50
2022-10-30T12:42:07.700Z,25.27
2022-10-30T12:45:15.257Z,22.92
2022-10-30T12:48:02.523Z,33.83
2022-10-30T12:51:12.473Z,34.33
2022-10-30T12:53:58.880Z,22.83
2022-10-30T12:56:59.042Z,28.33
2022-10-30T12:59:55.401Z,23.80
2022-10-30T13:02:42.691Z,32.60
2022-10-30T13:05:31.088Z,19.02
2022-10-30T13:08:37.045Z,22.38
2022-10-30T13:11:40.032Z,22.30
2022-10-30T13:14:30.878Z,28.58
2022-10-30T13:17:14.927Z,22.85
2022-10-30T13:19:55.641Z,23.20
2022-10-30T13:22:42.249Z,32.03
2022-10-30T13:25:44.062Z,25.17
2022-10-30T13:28:31.069Z,18.17
2022-10-30T13:31:41.647Z,20.83
2022-10-30T13:34:34.601Z,20.50
2022-10-30T13:37:38.454Z,24.15
2022-10-30T13:40:46.398Z,24.13
2022-10-30T13:43:42.713Z,31.30
2022-10-30T13:46:55.486Z,24.83
2022-10-30T13:49:52.252Z,20.73
2022-10-30T13:52:55.261Z,22.00
2022-10-30T13:55:55.219Z,31.83
2022-10-30T13:59:13.818Z,29.30
2022-10-30T14:02:30.071Z,22.33
2022-10-30T14:05:42.969Z,21.23
2022-10-30T14:08:54.981Z,19.95
2022-10-30T14:11:31.912Z,24.42
2022-10-30T14:14:31.431Z,15.57
2022-10-30T14:17:18.228Z,16.33
2022-10-30T14:20:18.433Z,19.98
2022-10-30T14:23:13.619Z,25.42
2022-10-30T14:25:45.273Z,22.23
2022-10-30T14:29:18.548Z,21.20
2022-10-30T14:32:35.130Z,21.27
2022-10-30T14:39:01.453Z,22.65
2022-10-30T14:42:24.721Z,24.23
2022-10-30T14:49:20.398Z,25.00
2022-10-30T14:52:15.739Z,19.13
2022-10-30T14:55:31.983Z,19.23
2022-10-30T14:58:35.902Z,20.52
2022-10-30T15:01:53.912Z,17.40
2022-10-30T15:04:58.066Z,18.85
2022-10-30T15:08:27.221Z,19.67
2022-10-30T15:14:58.190Z,21.30
2022-10-30T15:18:46.696Z,20.73
2022-10-30T15:21:52.552Z,20.48
2022-10-30T15:24:47.292Z,21.90
2022-10-30T15:31:16.950Z,23.20
2022-10-30T15:34:05.117Z,30.15
2022-10-30T15:37:14.211Z,28.08
2022-10-30T15:40:28.515Z,28.73
2022-10-30T15:43:48.385Z,22.98
2022-10-30T15:47:27.544Z,24.08
2022-10-30T15:50:50.648Z,17.73
2022-10-30T15:54:13.045Z,20.75
2022-10-30T16:04:15.508Z,26.65
2022-10-30T16:07:55.620Z,19.60
2022-10-30T16:11:30.257Z,24.25
2022-10-30T16:14:47.436Z,21.95
2022-10-30T16:21:54.394Z,18.00
2022-10-30T16:25:05.395Z,27.08
2022-10-30T16:27:57.430Z,27.65
2022-10-30T16:30:56.069Z,19.55
2022-10-30T16:33:46.681Z,26.92
2022-10-30T16:36:24.216Z,23.25
2022-10-30T16:39:18.785Z,18.08
2022-10-30T16:42:00.810Z,28.90
2022-10-30T16:44:51.520Z,30.33
2022-10-30T16:47:29.335Z,19.70
2022-10-30T16:50:15.971Z,22.17
2022-10-30T16:53:35.990Z,32.53
2022-10-30T16:56:25.012Z,21.90
2022-10-30T16:59:11.263Z,27.77
2022-10-30T17:02:34.586Z,21.95
2022-10-30T17:05:20.125Z,24.10
2022-10-30T17:08:40.917Z,25.65
2022-10-30T17:11:50.781Z,25.58
2022-10-30T17:14:53.250Z,39.80
2022-10-30T17:17:38.875Z,21.13
2022-10-30T17:20:31.174Z,25.85
2022-10-30T17:23:18.908Z,35.70
2022-10-30T17:25:50.054Z,20.52
2022-10-30T17:28:50.938Z,18.70
2022-10-30T17:31:50.924Z,21.83
2022-10-30T17:34:43.613Z,24.92
2022-10-30T17:37:43.951Z,20.23
2022-10-30T17:40:53.973Z,23.48
2022-10-30T17:47:48.223Z,26.65
2022-10-30T17:51:12.046Z,23.00
2022-10-30T17:54:46.361Z,22.02
2022-10-30T17:57:51.835Z,28.85
2022-10-30T18:00:36.057Z,29.40
2022-10-30T18:03:26.183Z,34.55
2022-10-30T18:06:09.470Z,26.80
2022-10-30T18:08:56.522Z,39.05
2022-10-30T18:11:36.046Z,36.70
2022-10-30T18:14:28.070Z,45.97
2022-10-30T18:17:30.132Z,29.02
2022-10-30T18:20:38.816Z,22.55
2022-10-30T18:24:00.688Z,30.92
2022-10-30T18:27:17.953Z,20.63
2022-10-30T18:30:37.431Z,34.90
2022-10-30T18:33:35.782Z,23.20
2022-10-30T18:36:35.248Z,26.23
2022-10-30T18:39:56.096Z,29.70
2022-10-30T18:42:41.895Z,28.33
2022-10-30T18:49:09.251Z,25.48
2022-10-30T18:52:09.757Z,34.40
2022-10-30T18:54:54.302Z,26.95
2022-10-30T18:57:54.363Z,29.20
2022-10-30T19:04:27.830Z,30.05
2022-10-30T19:07:13.307Z,40.00
2022-10-30T19:10:11.541Z,33.28
2022-10-30T19:13:15.403Z,28.33
2022-10-30T19:16:41.333Z,31.42
2022-10-30T19:19:35.361Z,24.05
2022-10-30T19:22:31.843Z,33.03
2022-10-30T19:25:28.725Z,35.85
2022-10-30T19:28:21.716Z,30.23
2022-10-30T19:31:15.482Z,28.67
2022-10-30T19:34:17.912Z,19.77
2022-10-30T19:37:11.849Z,35.30
2022-10-30T19:40:21.828Z,23.63
2022-10-30T19:43:20.606Z,32.10
2022-10-30T19:46:46.108Z,27.80
2022-10-30T19:50:09.238Z,33.28
2022-10-30T19:56:41.005Z,30.08
2022-10-30T19:59:44.275Z,37.92
2022-10-30T20:03:15.293Z,38.97
2022-10-30T20:05:56.238Z,33.55
2022-10-30T20:08:43.197Z,26.92
2022-10-30T20:11:17.207Z,36.92
2022-10-30T20:13:53.833Z,25.35
2022-10-30T20:16:33.346Z,29.70
2022-10-30T20:19:32.501Z,36.03
2022-10-30T20:22:07.389Z,32.55
2022-10-30T20:25:04.199Z,38.40
2022-10-30T20:28:25.958Z,41.65
2022-10-30T20:31:11.128Z,33.25
2022-10-30T20:33:58.190Z,40.72
2022-10-30T20:36:37.682Z,30.35
2022-10-30T20:39:14.094Z,31.55
2022-10-30T20:41:58.977Z,45.38
2022-10-30T20:44:32.382Z,26.27
2022-10-30T20:47:18.024Z,36.90
2022-10-30T20:50:04.587Z,26.67
2022-10-30T20:52:54.413Z,32.45
2022-10-30T20:55:37.682Z,27.77
2022-10-30T20:58:24.690Z,48.72
2022-10-30T21:01:04.991Z,35.80
2022-10-30T21:03:56.508Z,30.65
2022-10-30T21:06:49.492Z,35.90
2022-10-30T21:09:35.533Z,31.10
2022-10-30T21:12:12.331Z,26.50
2022-10-30T21:15:03.066Z,34.08
2022-10-30T21:17:37.811Z,34.92
2022-10-30T21:20:27.426Z,29.23
2022-10-30T21:26:37.158Z,32.60
2022-10-30T21:29:36.794Z,28.00
2022-10-30T21:32:35.479Z,34.97
2022-10-30T21:35:37.718Z,29.88
2022-10-30T21:38:17.389Z,33.17
2022-10-30T21:41:05.626Z,31.70
2022-10-30T21:43:41.050Z,35.53
2022-10-30T21:46:30.152Z,41.95
2022-10-30T21:49:22.963Z,34.80
2022-10-30T21:52:02.135Z,32.03
2022-10-30T21:54:52.631Z,33.53
2022-10-30T21:57:24.657Z,32.05
2022-10-30T22:00:01.513Z,33.25
2022-10-30T22:02:53.510Z,33.25
2022-10-30T22:05:33.018Z,35.35
2022-10-30T22:08:13.208Z,28.08
2022-10-30T22:10:56.446Z,31.95
2022-10-30T22:13:30.873Z,37.13
2022-10-30T22:16:15.908Z,36.53
2022-10-30T22:19:00.157Z,39.80
2022-10-30T22:21:42.855Z,22.83
2022-10-30T22:24:23.071Z,29.58
2022-10-30T22:27:15.434Z,32.78
2022-10-30T22:29:46.728Z,35.03
2022-10-30T22:32:34.922Z,38.22
2022-10-30T22:35:14.570Z,39.37
2022-10-30T22:38:04.019Z,37.53
2022-10-30T22:40:50.588Z,28.30
2022-10-30T22:43:33.505Z,30.20
2022-10-30T22:46:23.723Z,30.67
2022-10-30T22:49:12.602Z,32.58
2022-10-30T22:51:45.505Z,33.00
2022-10-30T22:54:19.970Z,34.90
2022-10-30T22:56:53.044Z,34.45
2022-10-30T22:59:28.482Z,26.42
2022-10-30T23:01:57.545Z,36.35
2022-10-30T23:04:25.452Z,29.05
2022-10-30T23:09:43.458Z,35.80
2022-10-30T23:12:17.490Z,27.05
2022-10-30T23:14:48.048Z,31.40
2022-10-30T23:17:15.420Z,35.22
2022-10-30T23:19:42.893Z,28.77
2022-10-30T23:22:10.792Z,26.02
2022-10-30T23:24:44.184Z,38.50
2022-10-30T23:29:44.388Z,29.90
2022-10-30T23:32:23.185Z,29.38
2022-10-30T23:34:50.871Z,31.08
2022-10-30T23:37:19.086Z,31.23
2022-10-30T23:39:49.509Z,30.25
2022-10-30T23:42:22.075Z,32.85
2022-10-30T23:44:51.647Z,26.77
2022-10-30T23:47:22.294Z,29.02
2022-10-30T23:49:49.734Z,35.67
2022-10-30T23:52:17.200Z,35.90
2022-10-30T23:54:47.368Z,24.02
2022-10-30T23:57:19.222Z,32.63
2022-10-30T23:59:50.648Z,32.53
